Time;durP1;ratioP1;P1;durP2;ratioP2;P2;SDS_P1;SDS_P2;PMS_P1;PMS_P2;Temp;Humidity;BMP_temperature;BMP_pressure;BME280_temperature;BME280_humidity;BME280_pressure;Samples;Min_cycle;Max_cycle;Signal;HPM_P1;HPM_P2
2023/05/24 00:00:59;;;;;;;9.88;3.38;;;;;;;10.22;74.86;101244.88;4936467;29;20214;-68
2023/05/24 00:03:29;;;;;;;14.68;4.25;;;;;;;10.25;75.16;101233.69;4933782;29;20198;-69
2023/05/24 00:05:59;;;;;;;9.05;3.28;;;;;;;10.25;74.77;101244.50;4932928;29;20211;-68
2023/05/24 00:08:29;;;;;;;9.13;3.10;;;;;;;10.23;74.95;101243.84;4925556;29;20200;-68
2023/05/24 00:11:00;;;;;;;9.90;3.63;;;;;;;10.21;74.61;101243.22;4932643;29;20199;-67
2023/05/24 00:13:29;;;;;;;6.57;3.30;;;;;;;10.21;75.05;101248.63;4937737;29;20201;-68
2023/05/24 00:15:58;;;;;;;10.32;3.05;;;;;;;10.14;74.80;101253.06;4925532;29;20560;-68
2023/05/24 00:18:30;;;;;;;7.60;2.72;;;;;;;10.09;74.56;101250.94;4930601;29;20669;-68
2023/05/24 00:20:59;;;;;;;13.98;3.28;;;;;;;10.05;75.19;101252.34;4939299;29;20188;-68
2023/05/24 00:23:28;;;;;;;10.50;3.20;;;;;;;9.98;75.33;101254.97;4939563;29;20663;-68
2023/05/24 00:26:00;;;;;;;9.52;2.28;;;;;;;10.07;74.75;101258.41;4926373;29;20769;-67
2023/05/24 00:28:30;;;;;;;12.25;4.35;;;;;;;10.05;75.14;101255.06;4931601;29;20193;-66
2023/05/24 00:30:59;;;;;;;7.47;2.95;;;;;;;10.13;75.18;101256.81;4924931;29;20196;-68
2023/05/24 00:33:29;;;;;;;14.02;2.55;;;;;;;10.27;73.67;101253.25;4943151;28;20208;-67
2023/05/24 00:35:58;;;;;;;8.73;3.13;;;;;;;10.21;73.96;101251.31;4932631;29;20288;-68
2023/05/24 00:38:27;;;;;;;6.90;3.07;;;;;;;10.28;73.70;101249.53;4928336;29;20188;-68
2023/05/24 00:40:56;;;;;;;10.10;2.47;;;;;;;10.29;73.66;101251.19;4926212;29;20538;-69
2023/05/24 00:43:27;;;;;;;11.13;3.30;;;;;;;10.27;73.65;101242.44;4928404;29;20447;-68
2023/05/24 00:46:16;;;;;;;9.65;3.20;;;;;;;10.36;73.33;101252.94;4927160;29;20726;-67
2023/05/24 00:48:46;;;;;;;10.20;4.18;;;;;;;10.47;72.66;101254.31;4934740;29;20198;-67
2023/05/24 00:51:15;;;;;;;17.88;3.42;;;;;;;10.43;72.97;101253.00;4933326;29;20549;-67
2023/05/24 00:53:47;;;;;;;9.00;3.22;;;;;;;10.41;72.61;101255.06;4926397;29;20250;-67
2023/05/24 00:56:17;;;;;;;8.37;3.50;;;;;;;10.50;72.02;101256.63;4932316;29;20313;-68
2023/05/24 00:58:49;;;;;;;11.27;2.40;;;;;;;10.46;72.17;101252.63;4929731;29;20484;-69
2023/05/24 01:01:18;;;;;;;7.43;3.63;;;;;;;10.49;72.00;101252.25;4929828;29;20449;-68
2023/05/24 01:03:47;;;;;;;6.13;2.50;;;;;;;10.60;71.87;101254.41;4927331;29;20204;-68
2023/05/24 01:06:17;;;;;;;11.35;2.70;;;;;;;10.62;71.29;101255.06;4922596;29;20458;-68
2023/05/24 01:09:02;;;;;;;6.70;3.28;;;;;;;10.55;71.75;101253.34;4929552;29;20212;-68
2023/05/24 01:11:43;;;;;;;5.82;2.97;;;;;;;10.52;72.17;101253.72;4924444;29;20210;-71
2023/05/24 01:14:22;;;;;;;7.05;3.00;;;;;;;10.63;72.04;101250.50;4933543;29;20192;-69
2023/05/24 01:16:56;;;;;;;4.27;2.37;;;;;;;10.58;71.23;101256.50;4919487;29;20264;-67
2023/05/24 01:19:43;;;;;;;5.70;2.60;;;;;;;10.56;71.50;101253.13;4924062;29;20441;-67
2023/05/24 01:22:29;;;;;;;13.45;2.80;;;;;;;10.64;71.86;101254.91;4933723;29;20197;-69
2023/05/24 01:25:06;;;;;;;8.93;2.90;;;;;;;10.53;71.96;101258.09;4931678;29;20287;-67
2023/05/24 01:27:40;;;;;;;14.63;4.13;;;;;;;10.51;72.60;101261.00;4925797;29;20206;-67
2023/05/24 01:30:11;;;;;;;7.15;2.83;;;;;;;10.61;71.99;101260.69;4930418;29;20571;-68
2023/05/24 01:32:40;;;;;;;11.70;2.95;;;;;;;10.59;71.96;101258.19;4923651;29;20207;-68
2023/05/24 01:35:10;;;;;;;8.50;2.95;;;;;;;10.56;71.72;101257.72;4929501;29;20215;-69
2023/05/24 01:37:39;;;;;;;7.57;3.00;;;;;;;10.63;71.86;101255.91;4930040;29;20676;-68
2023/05/24 01:40:10;;;;;;;14.10;3.15;;;;;;;10.53;71.85;101260.81;4941969;28;20924;-68
2023/05/24 01:42:48;;;;;;;6.20;1.90;;;;;;;10.49;72.02;101262.22;4927248;29;20195;-67
2023/05/24 01:45:23;;;;;;;17.37;3.37;;;;;;;10.56;71.64;101263.97;4930669;29;20470;-68
2023/05/24 01:48:04;;;;;;;8.60;3.33;;;;;;;10.62;71.84;101267.78;4938320;29;20441;-67
2023/05/24 01:50:45;;;;;;;12.20;3.10;;;;;;;10.62;71.83;101263.19;4938974;29;20462;-68
2023/05/24 01:53:18;;;;;;;9.00;3.20;;;;;;;10.65;71.67;101262.00;4930858;29;20446;-68
2023/05/24 01:55:51;;;;;;;9.68;2.38;;;;;;;10.60;72.36;101259.03;4933991;29;20465;-68
2023/05/24 01:58:25;;;;;;;6.47;3.28;;;;;;;10.55;73.00;101261.47;4937863;29;20192;-68
2023/05/24 02:00:55;;;;;;;5.90;3.23;;;;;;;10.55;73.35;101265.03;4936911;29;20267;-68
2023/05/24 02:03:24;;;;;;;12.02;2.80;;;;;;;10.51;73.78;101262.84;4934300;29;20887;-67
2023/05/24 02:05:53;;;;;;;16.37;3.53;;;;;;;10.54;74.32;101266.03;4936144;29;20286;-69
2023/05/24 02:08:22;;;;;;;10.23;2.80;;;;;;;10.56;74.42;101272.06;4936248;29;20488;-68
2023/05/24 02:10:52;;;;;;;11.38;2.33;;;;;;;10.56;74.47;101263.13;4941038;29;20782;-69
2023/05/24 02:13:23;;;;;;;4.90;2.50;;;;;;;10.56;74.66;101263.97;4937313;29;20200;-69
2023/05/24 02:15:52;;;;;;;6.77;2.67;;;;;;;10.53;75.18;101267.06;4937197;29;20250;-69
2023/05/24 02:18:21;;;;;;;10.02;3.47;;;;;;;10.50;74.97;101267.47;4938114;29;20435;-69
2023/05/24 02:20:51;;;;;;;12.90;3.00;;;;;;;10.59;74.95;101263.59;4927427;29;20254;-66
2023/05/24 02:23:20;;;;;;;5.88;2.75;;;;;;;10.67;74.43;101270.72;4929379;29;20444;-68
2023/05/24 02:25:49;;;;;;;12.60;4.50;;;;;;;10.55;74.78;101262.31;4929912;29;20216;-67
2023/05/24 02:28:18;;;;;;;13.38;3.95;;;;;;;10.50;75.23;101264.75;4927241;29;20462;-68
2023/05/24 02:30:49;;;;;;;6.00;3.20;;;;;;;10.51;75.70;101265.56;4924586;29;20203;-68
2023/05/24 02:33:18;;;;;;;7.80;2.93;;;;;;;10.63;75.29;101258.63;4935296;29;20451;-67
2023/05/24 02:35:47;;;;;;;8.15;3.15;;;;;;;10.66;74.79;101263.63;4937066;29;20482;-69
2023/05/24 02:38:16;;;;;;;9.40;3.85;;;;;;;10.60;75.34;101259.84;4932365;29;20703;-68
2023/05/24 02:40:45;;;;;;;8.20;2.53;;;;;;;10.59;75.47;101254.63;4923237;29;20676;-68
2023/05/24 02:43:15;;;;;;;8.75;2.83;;;;;;;10.53;75.41;101261.66;4932244;29;20550;-69
2023/05/24 02:45:44;;;;;;;7.70;2.13;;;;;;;10.59;75.93;101262.75;4932605;29;20846;-69
2023/05/24 02:48:14;;;;;;;10.07;2.85;;;;;;;10.57;75.54;101260.22;4934985;29;20632;-68
2023/05/24 02:50:44;;;;;;;14.32;2.58;;;;;;;10.43;76.28;101261.13;4934523;29;20193;-69
2023/05/24 02:53:13;;;;;;;6.88;3.35;;;;;;;10.48;76.49;101255.97;4933215;29;20189;-68
2023/05/24 02:55:42;;;;;;;3.70;2.40;;;;;;;10.48;76.39;101263.25;4934541;29;20306;-68
2023/05/24 02:58:12;;;;;;;8.23;2.67;;;;;;;10.36;77.32;101263.75;4937097;29;20464;-66
2023/05/24 03:00:42;;;;;;;4.43;2.97;;;;;;;10.39;76.57;101267.97;4929132;29;20234;-68
2023/05/24 03:03:13;;;;;;;14.68;4.10;;;;;;;10.38;77.13;101258.16;4930677;29;20199;-70
2023/05/24 03:05:43;;;;;;;6.88;3.35;;;;;;;10.41;77.24;101258.59;4932359;29;20223;-68
2023/05/24 03:08:12;;;;;;;16.02;3.22;;;;;;;10.40;77.20;101265.06;4925878;29;20213;-69
2023/05/24 03:10:42;;;;;;;10.57;2.70;;;;;;;10.54;77.12;101263.34;4926243;29;20204;-68
2023/05/24 03:13:13;;;;;;;20.75;3.42;;;;;;;10.46;77.21;101266.16;4935345;29;20256;-68
2023/05/24 03:15:42;;;;;;;6.13;3.28;;;;;;;10.34;77.31;101262.28;4936197;29;20221;-65
2023/05/24 03:18:13;;;;;;;10.18;3.92;;;;;;;10.22;78.10;101266.50;4936869;29;20626;-68
2023/05/24 03:20:44;;;;;;;12.40;3.95;;;;;;;10.06;78.82;101269.41;4936529;29;20633;-68
2023/05/24 03:23:14;;;;;;;15.82;5.65;;;;;;;10.04;78.84;101270.44;4928695;29;20208;-68
2023/05/24 03:25:44;;;;;;;14.38;4.22;;;;;;;10.13;79.04;101267.63;4929799;29;20245;-67
2023/05/24 03:28:14;;;;;;;8.68;3.78;;;;;;;10.17;78.64;101268.94;4927591;29;20196;-68
2023/05/24 03:30:44;;;;;;;16.05;4.10;;;;;;;10.35;77.68;101263.97;4935450;29;20203;-68
2023/05/24 03:33:16;;;;;;;12.38;4.00;;;;;;;10.34;77.67;101276.66;4935176;29;20215;-68
2023/05/24 03:35:46;;;;;;;15.38;5.15;;;;;;;10.23;78.18;101270.88;4937059;29;20219;-69
2023/05/24 03:38:15;;;;;;;9.27;3.47;;;;;;;10.24;77.91;101273.41;4934082;29;20246;-69
2023/05/24 03:40:47;;;;;;;16.98;4.60;;;;;;;10.34;78.00;101270.41;4934394;29;20291;-69
2023/05/24 03:43:20;;;;;;;19.88;4.35;;;;;;;10.44;77.73;101270.94;4931938;29;20275;-69
2023/05/24 03:45:53;;;;;;;15.47;4.07;;;;;;;10.41;77.43;101272.13;4924671;29;20321;-68
2023/05/24 03:48:24;;;;;;;15.85;4.18;;;;;;;10.58;76.56;101271.91;4934768;29;20408;-70
2023/05/24 03:50:53;;;;;;;11.90;3.42;;;;;;;10.40;76.94;101267.78;4939050;29;20208;-68
2023/05/24 03:53:23;;;;;;;8.15;3.40;;;;;;;10.55;77.14;101281.25;4926868;29;20202;-69
2023/05/24 03:55:52;;;;;;;10.70;3.03;;;;;;;10.47;76.83;101289.47;4934507;29;20217;-68
2023/05/24 03:58:23;;;;;;;10.03;3.67;;;;;;;10.47;76.26;101286.78;4929823;29;20578;-68
2023/05/24 04:00:52;;;;;;;9.50;3.87;;;;;;;10.62;75.96;101290.25;4937537;29;20472;-67
2023/05/24 04:03:24;;;;;;;8.03;2.30;;;;;;;10.45;75.91;101288.84;4928885;29;20444;-69
2023/05/24 04:05:55;;;;;;;11.77;3.83;;;;;;;10.54;75.84;101282.28;4929622;29;20847;-68
2023/05/24 04:08:25;;;;;;;12.50;4.17;;;;;;;10.65;75.27;101292.56;4933369;29;20980;-69
2023/05/24 04:10:54;;;;;;;7.47;3.73;;;;;;;10.71;74.87;101289.09;4933095;29;20450;-67
2023/05/24 04:13:23;;;;;;;13.83;4.67;;;;;;;10.78;74.35;101294.59;4934237;29;20845;-68
2023/05/24 04:15:53;;;;;;;9.97;3.20;;;;;;;10.80;73.63;101301.47;4934217;29;20472;-69
2023/05/24 04:18:23;;;;;;;9.63;3.20;;;;;;;10.59;74.24;101295.22;4931336;29;20476;-69
2023/05/24 04:20:52;;;;;;;11.40;3.80;;;;;;;10.81;73.56;101299.59;4934230;29;20442;-68
2023/05/24 04:23:21;;;;;;;7.95;3.03;;;;;;;10.75;73.98;101303.91;4933905;29;20434;-68
2023/05/24 04:25:51;;;;;;;7.73;2.90;;;;;;;10.82;73.64;101302.13;4930962;29;20309;-66
2023/05/24 04:28:22;;;;;;;9.17;3.57;;;;;;;11.12;73.65;101307.38;4934125;29;20447;-68
2023/05/24 04:30:52;;;;;;;8.20;3.77;;;;;;;11.00;71.69;101306.22;4932171;29;20453;-69
2023/05/24 04:33:23;;;;;;;9.07;3.23;;;;;;;11.02;72.51;101312.31;4923353;29;20508;-70
2023/05/24 04:35:52;;;;;;;10.43;3.13;;;;;;;10.86;72.32;101319.66;4930862;29;20460;-67
2023/05/24 04:38:23;;;;;;;8.87;4.43;;;;;;;10.62;72.66;101306.50;4928690;29;20472;-69
2023/05/24 04:40:52;;;;;;;11.60;3.00;;;;;;;10.77;72.82;101315.41;4927013;29;20439;-69
2023/05/24 04:43:21;;;;;;;13.70;5.70;;;;;;;10.92;72.44;101318.03;4933447;29;20439;-70
2023/05/24 04:45:50;;;;;;;7.90;4.10;;;;;;;10.90;72.49;101318.22;4933768;29;20464;-68
2023/05/24 04:48:20;;;;;;;10.60;3.30;;;;;;;10.66;72.91;101324.03;4922648;29;20516;-70
2023/05/24 04:50:51;;;;;;;12.77;5.32;;;;;;;10.67;72.60;101320.28;4932811;29;20471;-68
2023/05/24 04:53:20;;;;;;;6.22;3.95;;;;;;;10.75;72.95;101328.28;4935515;29;20674;-69
2023/05/24 04:55:51;;;;;;;18.37;5.27;;;;;;;10.71;72.66;101328.84;4931582;29;20270;-69
2023/05/24 04:58:22;;;;;;;7.07;3.10;;;;;;;10.83;72.41;101336.31;4926593;28;20475;-69
2023/05/24 05:00:51;;;;;;;12.87;4.20;;;;;;;11.10;71.73;101341.94;4928577;29;20263;-68
2023/05/24 05:03:21;;;;;;;14.30;3.80;;;;;;;10.86;71.71;101341.31;4941964;28;20443;-68
2023/05/24 05:05:52;;;;;;;16.07;5.43;;;;;;;10.78;72.12;101333.34;4924836;29;20434;-68
2023/05/24 05:08:21;;;;;;;11.80;4.23;;;;;;;10.93;72.07;101345.97;4918751;29;20865;-67
2023/05/24 05:10:50;;;;;;;13.90;4.10;;;;;;;10.80;71.90;101339.38;4937485;29;20492;-68
2023/05/24 05:13:19;;;;;;;19.47;4.50;;;;;;;10.69;72.24;101344.47;4930272;29;20522;-69
2023/05/24 05:15:48;;;;;;;9.13;3.50;;;;;;;10.97;72.53;101344.53;4940305;28;20458;-72
2023/05/24 05:18:18;;;;;;;12.57;5.77;;;;;;;11.15;71.28;101353.88;4939768;29;20531;-69
2023/05/24 05:20:47;;;;;;;15.53;4.90;;;;;;;10.96;71.59;101359.09;4929099;29;20439;-69
2023/05/24 05:23:18;;;;;;;11.73;4.03;;;;;;;11.18;71.31;101356.19;4937788;29;20439;-68
2023/05/24 05:25:47;;;;;;;17.00;3.80;;;;;;;11.32;70.15;101358.00;4925971;29;20939;-68
2023/05/24 05:28:16;;;;;;;21.60;5.77;;;;;;;11.09;70.59;101353.81;4941178;29;20425;-67
2023/05/24 05:30:46;;;;;;;21.93;5.87;;;;;;;11.21;70.93;101360.38;4934029;29;20817;-68
2023/05/24 05:33:15;;;;;;;6.13;3.53;;;;;;;11.42;70.49;101367.66;4939791;29;20421;-67
2023/05/24 05:35:44;;;;;;;19.90;6.00;;;;;;;11.42;69.22;101367.66;4932435;29;20455;-67
2023/05/24 05:38:13;;;;;;;25.00;5.27;;;;;;;11.28;69.41;101372.09;4933078;29;20467;-67
2023/05/24 05:40:44;;;;;;;11.13;4.80;;;;;;;11.19;69.87;101362.44;4933590;29;20437;-67
2023/05/24 05:43:13;;;;;;;11.80;3.70;;;;;;;11.37;69.12;101370.97;4933274;29;20432;-67
2023/05/24 05:45:42;;;;;;;13.90;5.00;;;;;;;11.53;69.27;101369.81;4929777;29;20540;-69
2023/05/24 05:48:11;;;;;;;22.40;5.17;;;;;;;11.34;68.68;101376.75;4928047;29;20844;-67
2023/05/24 05:50:40;;;;;;;24.90;5.60;;;;;;;11.44;68.67;101379.97;4937646;29;20524;-67
2023/05/24 05:53:10;;;;;;;20.10;5.53;;;;;;;11.77;69.02;101382.94;4933706;29;20436;-69
2023/05/24 05:55:39;;;;;;;12.93;3.90;;;;;;;11.84;67.70;101383.84;4926177;29;21067;-68
2023/05/24 05:58:10;;;;;;;13.93;4.50;;;;;;;11.76;67.37;101387.53;4938015;28;20913;-69
2023/05/24 06:00:40;;;;;;;14.30;5.53;;;;;;;11.89;67.23;101386.81;4937059;29;20888;-70
2023/05/24 06:03:09;;;;;;;16.03;4.53;;;;;;;11.84;67.26;101393.84;4932001;29;20504;-69
2023/05/24 06:05:39;;;;;;;15.53;4.80;;;;;;;11.81;67.39;101391.56;4936871;29;20438;-69
2023/05/24 06:08:08;;;;;;;10.60;4.73;;;;;;;11.80;67.20;101387.16;4937076;29;20408;-69
2023/05/24 06:10:37;;;;;;;18.97;6.30;;;;;;;11.51;68.15;101388.16;4929336;29;20443;-67
2023/05/24 06:13:08;;;;;;;14.13;4.90;;;;;;;11.65;68.74;101407.06;4931451;29;20456;-69
2023/05/24 06:15:37;;;;;;;13.73;5.30;;;;;;;11.72;68.25;101399.81;4929900;29;20457;-69
2023/05/24 06:18:07;;;;;;;20.13;6.40;;;;;;;11.78;67.34;101406.31;4946142;28;20521;-71
2023/05/24 06:20:36;;;;;;;14.80;5.23;;;;;;;11.73;67.85;101406.94;4931581;29;20419;-69
2023/05/24 06:23:05;;;;;;;17.57;5.77;;;;;;;12.08;67.73;101405.06;4938477;29;20450;-69
2023/05/24 06:25:35;;;;;;;14.80;4.83;;;;;;;12.06;67.04;101403.59;4928127;29;20512;-69
2023/05/24 06:28:04;;;;;;;19.67;4.80;;;;;;;12.02;67.28;101419.44;4932910;29;20490;-68
2023/05/24 06:30:34;;;;;;;23.37;5.20;;;;;;;12.07;67.25;101416.97;4940056;29;20873;-69
2023/05/24 06:33:04;;;;;;;24.30;5.60;;;;;;;11.92;67.45;101418.09;4930100;29;20454;-67
2023/05/24 06:35:33;;;;;;;8.90;3.63;;;;;;;12.18;67.76;101410.13;4938871;29;20513;-70
2023/05/24 06:38:02;;;;;;;23.53;5.87;;;;;;;12.20;67.23;101417.03;4935422;29;20454;-67
2023/05/24 06:40:31;;;;;;;12.90;4.37;;;;;;;12.39;66.39;101407.31;4932596;29;20638;-69
2023/05/24 06:43:00;;;;;;;14.30;4.47;;;;;;;12.42;65.99;101415.06;4927899;29;20418;-68
2023/05/24 06:45:30;;;;;;;9.33;4.20;;;;;;;12.76;65.92;101419.59;4925701;29;20671;-67
2023/05/24 06:48:01;;;;;;;13.97;5.20;;;;;;;12.42;66.36;101425.94;4925334;29;20416;-66
2023/05/24 06:50:30;;;;;;;16.33;5.37;;;;;;;12.20;66.92;101429.75;4930146;29;20404;-68
2023/05/24 06:53:01;;;;;;;12.97;4.70;;;;;;;12.04;68.00;101438.22;4928031;29;20492;-68
2023/05/24 06:55:30;;;;;;;13.93;5.07;;;;;;;11.82;68.28;101439.31;4928228;29;20461;-68
2023/05/24 06:58:00;;;;;;;12.37;4.73;;;;;;;11.99;68.01;101443.41;4933202;29;20848;-67
2023/05/24 07:00:29;;;;;;;22.10;5.87;;;;;;;12.12;67.69;101432.63;4926894;29;20519;-68
2023/05/24 07:02:58;;;;;;;19.27;6.50;;;;;;;12.26;67.74;101442.53;4932301;29;20428;-68
2023/05/24 07:05:28;;;;;;;15.30;5.90;;;;;;;12.33;67.61;101439.88;4930136;29;20553;-68
2023/05/24 07:07:57;;;;;;;11.70;4.77;;;;;;;12.39;67.36;101447.22;4929402;29;20426;-68
2023/05/24 07:10:27;;;;;;;18.63;5.83;;;;;;;12.21;68.15;101445.00;4931826;29;20523;-68
2023/05/24 07:12:56;;;;;;;14.80;5.90;;;;;;;12.05;68.24;101448.06;4929111;29;20432;-68
2023/05/24 07:15:25;;;;;;;18.10;5.53;;;;;;;12.14;68.29;101446.84;4929751;29;20538;-68
2023/05/24 07:17:54;;;;;;;27.73;6.37;;;;;;;12.37;67.62;101444.69;4931900;29;20433;-68
2023/05/24 07:20:23;;;;;;;9.63;4.50;;;;;;;12.54;67.05;101451.44;4929628;28;20436;-70
2023/05/24 07:22:54;;;;;;;9.70;5.20;;;;;;;12.79;66.34;101450.94;4928964;29;20433;-69
2023/05/24 07:25:23;;;;;;;23.83;6.43;;;;;;;13.10;64.40;101459.41;4930564;29;20431;-69
2023/05/24 07:27:52;;;;;;;14.53;5.80;;;;;;;13.03;64.74;101456.66;4926121;29;20993;-68
2023/05/24 07:30:21;;;;;;;20.03;6.73;;;;;;;12.70;65.48;101465.72;4927754;29;20969;-69
2023/05/24 07:33:00;;;;;;;9.67;4.90;;;;;;;12.95;64.85;101458.72;4927322;29;20433;-69
2023/05/24 07:35:30;;;;;;;11.20;4.93;;;;;;;13.23;65.00;101459.47;4923733;29;20498;-69
2023/05/24 07:38:00;;;;;;;16.80;5.20;;;;;;;13.70;63.50;101463.91;4932810;29;20492;-68
2023/05/24 07:40:30;;;;;;;11.07;4.83;;;;;;;13.54;62.80;101472.50;4924595;29;20460;-69
2023/05/24 07:42:59;;;;;;;15.60;6.03;;;;;;;13.26;64.34;101469.94;4930478;29;20464;-68
2023/05/24 07:45:28;;;;;;;18.00;6.00;;;;;;;13.53;63.70;101478.13;4930599;29;20525;-70
2023/05/24 07:47:57;;;;;;;7.83;4.00;;;;;;;13.19;62.87;101474.50;4926555;29;20415;-69
2023/05/24 07:50:27;;;;;;;25.00;5.77;;;;;;;12.77;64.37;101480.19;4931006;29;20428;-67
2023/05/24 07:52:59;;;;;;;14.10;4.53;;;;;;;13.21;63.99;101483.31;4931343;29;20432;-67
2023/05/24 07:55:53;;;;;;;17.57;4.43;;;;;;;13.33;63.58;101489.81;4926793;29;20456;-68
2023/05/24 07:58:22;;;;;;;14.53;5.60;;;;;;;13.51;63.42;101493.81;4931221;29;20957;-69
2023/05/24 08:00:53;;;;;;;11.77;4.53;;;;;;;13.42;63.49;101488.56;4928920;29;20925;-68
2023/05/24 08:03:23;;;;;;;8.67;4.83;;;;;;;13.35;62.66;101490.44;4931059;29;20956;-68
2023/05/24 08:05:53;;;;;;;19.60;5.40;;;;;;;13.70;63.35;101496.53;4934420;29;20791;-69
2023/05/24 08:08:23;;;;;;;16.03;6.13;;;;;;;13.81;62.63;101493.22;4930760;29;20440;-69
2023/05/24 08:10:53;;;;;;;16.40;5.57;;;;;;;13.90;61.68;101485.66;4926245;29;20898;-65
2023/05/24 08:13:23;;;;;;;13.73;4.93;;;;;;;13.46;62.64;101487.09;4924818;29;20916;-68
2023/05/24 08:15:52;;;;;;;9.60;4.80;;;;;;;13.68;62.79;101484.22;4930122;29;20485;-68
2023/05/24 08:18:21;;;;;;;15.90;6.00;;;;;;;13.62;63.61;101493.19;4926052;29;20437;-68
2023/05/24 08:20:50;;;;;;;16.27;5.93;;;;;;;13.58;62.67;101491.94;4931770;29;20956;-69
2023/05/24 08:23:20;;;;;;;20.83;5.00;;;;;;;13.58;62.02;101497.38;4942236;29;20412;-69
2023/05/24 08:25:52;;;;;;;13.93;6.00;;;;;;;14.01;61.13;101498.66;4929757;29;20471;-70
2023/05/24 08:28:21;;;;;;;18.80;6.10;;;;;;;14.21;60.99;101504.91;4939275;29;20436;-69
2023/05/24 08:30:50;;;;;;;13.07;5.60;;;;;;;14.19;61.47;101503.44;4936158;29;20461;-68
2023/05/24 08:33:22;;;;;;;18.10;6.13;;;;;;;14.11;61.85;101493.63;4940118;29;20432;-68
2023/05/24 08:35:52;;;;;;;15.83;5.27;;;;;;;14.47;62.19;101497.78;4941420;29;20484;-68
2023/05/24 08:38:21;;;;;;;9.50;4.30;;;;;;;14.67;60.77;101512.16;4936000;29;20787;-68
2023/05/24 08:40:52;;;;;;;16.77;5.07;;;;;;;14.49;60.60;101520.19;4930553;29;20435;-69
2023/05/24 08:43:22;;;;;;;13.10;6.10;;;;;;;14.59;60.29;101512.41;4929455;29;20828;-68
2023/05/24 08:45:53;;;;;;;16.10;5.07;;;;;;;14.74;60.72;101511.13;4923566;29;20471;-67
2023/05/24 08:48:24;;;;;;;15.10;5.87;;;;;;;14.89;59.38;101513.56;4928397;29;20429;-67
2023/05/24 08:50:54;;;;;;;14.27;5.80;;;;;;;14.88;59.01;101514.63;4926603;29;20424;-68
2023/05/24 08:53:23;;;;;;;11.60;4.80;;;;;;;15.20;59.18;101515.56;4927992;29;20543;-67
2023/05/24 08:55:55;;;;;;;15.20;6.40;;;;;;;15.16;58.51;101525.19;4925324;29;20843;-68
2023/05/24 08:58:25;;;;;;;9.40;4.87;;;;;;;14.75;58.47;101517.41;4927145;29;20459;-69
2023/05/24 09:00:54;;;;;;;17.07;6.10;;;;;;;14.57;59.87;101520.78;4928227;29;20448;-67
2023/05/24 09:03:25;;;;;;;17.20;5.20;;;;;;;14.60;59.23;101530.44;4926841;29;20445;-68
2023/05/24 09:05:54;;;;;;;14.20;5.07;;;;;;;14.47;59.05;101530.47;4927050;29;20456;-66
2023/05/24 09:08:24;;;;;;;14.67;5.20;;;;;;;14.43;60.20;101524.59;4933149;29;20507;-67
2023/05/24 09:10:56;;;;;;;11.00;5.00;;;;;;;14.97;59.21;101537.84;4926975;29;20436;-68
2023/05/24 09:13:26;;;;;;;12.87;6.40;;;;;;;15.40;58.27;101526.31;4924509;29;20405;-68
2023/05/24 09:15:59;;;;;;;14.17;6.80;;;;;;;15.53;57.10;101537.22;4924742;29;20805;-67
2023/05/24 09:18:28;;;;;;;16.20;6.57;;;;;;;15.79;57.08;101547.09;4920341;29;20411;-67
2023/05/24 09:20:57;;;;;;;17.10;5.53;;;;;;;15.78;57.31;101538.06;4927651;29;20899;-68
2023/05/24 09:23:27;;;;;;;13.80;5.23;;;;;;;15.64;56.42;101536.47;4925454;29;20438;-67
2023/05/24 09:25:58;;;;;;;11.87;4.90;;;;;;;14.98;57.45;101531.34;4924119;29;20979;-67
2023/05/24 09:28:32;;;;;;;12.93;6.30;;;;;;;15.09;58.43;101530.69;4933135;29;20407;-67
2023/05/24 09:31:02;;;;;;;11.17;4.67;;;;;;;14.68;58.45;101527.47;4922517;29;20459;-67
2023/05/24 09:33:36;;;;;;;11.30;4.33;;;;;;;14.82;58.87;101537.28;4923853;29;20433;-68
2023/05/24 09:36:06;;;;;;;9.70;5.30;;;;;;;15.26;58.08;101531.00;4924490;28;20566;-69
2023/05/24 09:38:35;;;;;;;15.13;4.00;;;;;;;14.79;58.13;101535.84;4925570;29;20858;-68
2023/05/24 09:41:09;;;;;;;14.37;4.90;;;;;;;15.31;57.37;101538.53;4929432;29;20469;-68
2023/05/24 09:43:49;;;;;;;13.33;5.20;;;;;;;15.44;56.40;101531.13;4923921;29;20402;-66
2023/05/24 09:46:20;;;;;;;18.67;5.27;;;;;;;15.62;56.83;101531.28;4927608;29;20845;-68
2023/05/24 09:48:58;;;;;;;19.00;4.70;;;;;;;16.11;54.79;101537.00;4928324;29;20820;-68
2023/05/24 09:51:28;;;;;;;8.20;4.20;;;;;;;16.30;55.29;101536.81;4930628;29;20401;-68
2023/05/24 09:54:00;;;;;;;12.87;5.33;;;;;;;15.54;56.59;101536.16;4923150;29;20404;-66
2023/05/24 09:56:32;;;;;;;18.03;5.30;;;;;;;16.05;55.12;101544.19;4926860;29;20781;-66
2023/05/24 09:59:07;;;;;;;12.07;5.00;;;;;;;15.94;55.23;101548.44;4928078;29;20938;-66
2023/05/24 10:01:37;;;;;;;13.93;5.77;;;;;;;16.30;53.99;101545.00;4928636;29;20898;-68
2023/05/24 10:04:06;;;;;;;10.57;6.70;;;;;;;16.17;54.42;101539.66;4921168;29;20419;-68
2023/05/24 10:06:39;;;;;;;11.77;5.17;;;;;;;16.18;54.02;101557.72;4928193;29;20407;-68
2023/05/24 10:09:09;;;;;;;10.20;4.50;;;;;;;15.52;55.00;101550.00;4928326;29;20406;-69
2023/05/24 10:11:41;;;;;;;7.97;4.73;;;;;;;16.39;54.24;101556.47;4932896;29;20393;-67
2023/05/24 10:14:10;;;;;;;10.83;4.83;;;;;;;16.67;53.87;101559.59;4929268;29;20928;-69
2023/05/24 10:16:40;;;;;;;12.33;4.40;;;;;;;17.48;52.07;101556.47;4935396;29;20415;-68
2023/05/24 10:19:09;;;;;;;13.13;4.87;;;;;;;17.60;50.53;101557.41;4934985;29;20474;-69
2023/05/24 10:21:42;;;;;;;11.57;5.50;;;;;;;17.79;50.13;101542.59;4932379;29;20492;-69
2023/05/24 10:24:13;;;;;;;11.87;4.37;;;;;;;18.12;49.44;101552.19;4933659;29;20406;-68
2023/05/24 10:26:47;;;;;;;14.80;5.67;;;;;;;18.30;49.34;101546.59;4935187;29;20411;-68
2023/05/24 10:29:27;;;;;;;9.23;3.90;;;;;;;18.19;48.29;101547.44;4927543;29;20444;-68
2023/05/24 10:31:56;;;;;;;9.80;5.20;;;;;;;17.96;49.28;101547.41;4929181;29;20507;-69
2023/05/24 10:34:26;;;;;;;10.43;4.43;;;;;;;17.57;49.64;101541.41;4926276;29;20407;-67
2023/05/24 10:36:55;;;;;;;9.50;4.13;;;;;;;16.98;50.33;101552.31;4932498;29;20436;-69
2023/05/24 10:39:26;;;;;;;10.77;4.47;;;;;;;17.11;49.82;101552.16;4926133;29;20411;-68
2023/05/24 10:42:02;;;;;;;10.27;4.50;;;;;;;16.55;49.39;101561.38;4929745;29;21156;-68
2023/05/24 10:44:31;;;;;;;10.33;4.10;;;;;;;16.30;50.40;101555.09;4935212;29;20429;-69
2023/05/24 10:47:13;;;;;;;11.30;4.23;;;;;;;16.42;51.12;101558.75;4933191;29;20817;-67
2023/05/24 10:49:50;;;;;;;11.27;8.13;;;;;;;16.57;52.04;101561.97;4927346;29;20434;-67
2023/05/24 10:52:20;;;;;;;12.77;4.60;;;;;;;16.40;52.44;101556.28;4924606;29;20478;-68
2023/05/24 10:55:06;;;;;;;8.03;4.37;;;;;;;15.96;52.64;101559.16;4926785;29;20455;-67
2023/05/24 10:57:38;;;;;;;9.57;5.07;;;;;;;16.06;53.85;101565.81;4928917;29;20771;-69
2023/05/24 11:00:29;;;;;;;11.17;4.13;;;;;;;15.89;54.00;101556.47;4934947;29;20521;-68
2023/05/24 11:03:02;;;;;;;12.67;5.00;;;;;;;15.89;53.33;101570.13;4928777;29;20497;-69
2023/05/24 11:05:36;;;;;;;11.77;3.03;;;;;;;15.11;54.58;101560.44;4931200;29;20441;-69
2023/05/24 11:08:08;;;;;;;7.50;3.33;;;;;;;14.80;55.75;101566.66;4929416;29;20974;-67
2023/05/24 11:10:37;;;;;;;11.03;3.67;;;;;;;14.81;55.41;101560.16;4927975;29;20898;-67
2023/05/24 11:13:10;;;;;;;9.30;4.33;;;;;;;14.93;56.20;101557.56;4925954;29;20400;-68
2023/05/24 11:15:40;;;;;;;6.30;3.50;;;;;;;15.45;54.79;101561.97;4924750;29;20871;-67
2023/05/24 11:18:16;;;;;;;4.07;2.87;;;;;;;15.98;54.41;101560.59;4928823;29;20457;-69
2023/05/24 11:20:46;;;;;;;11.13;4.50;;;;;;;16.56;52.31;101560.28;4932561;29;20500;-67
2023/05/24 11:23:16;;;;;;;7.50;3.57;;;;;;;16.94;51.59;101554.69;4929511;29;20441;-68
2023/05/24 11:25:47;;;;;;;7.83;4.27;;;;;;;17.03;49.52;101553.31;4933858;29;20456;-70
2023/05/24 11:28:18;;;;;;;10.70;3.80;;;;;;;17.04;50.29;101556.88;4938870;29;20411;-68
2023/05/24 11:30:48;;;;;;;8.73;4.03;;;;;;;16.92;48.59;101565.00;4934977;29;20770;-68
2023/05/24 11:33:42;;;;;;;11.80;5.17;;;;;;;16.85;50.07;101564.22;4936770;29;20883;-68
2023/05/24 11:36:11;;;;;;;10.10;3.57;;;;;;;17.03;48.96;101566.97;4927259;29;20445;-70